createdAt,value
2018-11-26T00:02:21.634Z,4.724426
2018-11-26T00:05:50.408Z,4.724426
2018-11-26T00:09:18.406Z,4.744568
2018-11-26T00:12:46.363Z,4.744568
2018-11-26T00:16:14.290Z,4.77478
2018-11-26T00:19:42.296Z,4.784851
2018-11-26T00:23:10.288Z,4.784851
2018-11-26T00:26:38.173Z,4.794922
2018-11-26T00:30:06.130Z,4.794922
2018-11-26T00:33:33.996Z,4.794922
2018-11-26T00:37:01.882Z,4.784851
2018-11-26T00:40:29.766Z,4.784851
2018-11-26T00:43:57.635Z,4.784851
2018-11-26T00:47:25.526Z,4.77478
2018-11-26T00:50:53.410Z,4.744568
2018-11-26T00:54:21.278Z,4.724426
2018-11-26T00:57:50.158Z,4.674072
2018-11-26T01:01:18.038Z,4.633789
2018-11-26T01:04:45.924Z,4.603577
2018-11-26T01:08:13.786Z,4.543152
2018-11-26T01:11:41.673Z,4.492798
2018-11-26T01:15:09.561Z,4.452515
2018-11-26T01:18:37.423Z,4.412231
2018-11-26T01:22:05.306Z,4.361877
2018-11-26T01:25:33.182Z,4.311523
2018-11-26T01:29:01.052Z,4.27124
2018-11-26T01:32:28.934Z,4.261169
2018-11-26T01:35:56.812Z,4.241028
2018-11-26T01:39:24.680Z,4.180603
2018-11-26T01:42:53.654Z,4.170532
2018-11-26T01:46:21.932Z,4.180603
2018-11-26T01:49:50.815Z,4.170532
2018-11-26T01:53:18.684Z,4.180603
2018-11-26T01:56:46.566Z,4.180603
2018-11-26T02:00:14.447Z,4.200745
2018-11-26T02:03:42.316Z,4.210815
2018-11-26T02:07:10.192Z,4.230957
2018-11-26T02:10:38.080Z,4.27124
2018-11-26T02:14:05.946Z,4.301453
2018-11-26T02:17:33.854Z,4.311523
2018-11-26T02:21:01.734Z,4.351807
2018-11-26T02:24:30.594Z,4.39209
2018-11-26T02:27:58.476Z,4.412231
2018-11-26T02:31:26.361Z,4.432373
2018-11-26T02:34:54.242Z,4.462585
2018-11-26T02:38:23.097Z,4.512939
2018-11-26T02:41:50.983Z,4.512939
2018-11-26T02:45:18.872Z,4.512939
2018-11-26T02:48:46.745Z,4.533081
2018-11-26T02:52:14.635Z,4.512939
2018-11-26T02:55:42.525Z,4.512939
2018-11-26T02:59:10.414Z,4.492798
2018-11-26T03:02:39.273Z,4.512939
2018-11-26T03:06:07.157Z,4.512939
2018-11-26T03:09:35.027Z,4.512939
2018-11-26T03:13:03.896Z,4.492798
2018-11-26T03:16:31.786Z,4.482727
2018-11-26T03:19:59.671Z,4.462585
2018-11-26T03:23:27.537Z,4.452515
2018-11-26T03:26:55.424Z,4.422302
2018-11-26T03:30:23.307Z,4.412231
2018-11-26T03:33:52.178Z,4.361877
2018-11-26T03:37:20.060Z,4.341736
2018-11-26T03:40:47.943Z,4.311523
2018-11-26T03:44:15.813Z,4.281311
2018-11-26T03:47:43.702Z,4.281311
2018-11-26T03:51:11.588Z,4.27124
2018-11-26T03:54:39.468Z,4.261169
2018-11-26T03:58:07.361Z,4.261169
2018-11-26T04:01:35.288Z,4.261169
2018-11-26T04:05:03.186Z,4.241028
2018-11-26T04:08:31.075Z,4.241028
2018-11-26T04:11:58.959Z,4.241028
2018-11-26T04:15:26.845Z,4.261169
2018-11-26T04:18:54.723Z,4.261169
2018-11-26T04:22:22.591Z,4.261169
2018-11-26T04:25:50.465Z,4.261169
2018-11-26T04:29:18.348Z,4.210815
2018-11-26T04:32:46.218Z,4.200745
2018-11-26T04:36:14.099Z,4.160461
2018-11-26T04:39:42.969Z,4.100037
2018-11-26T04:43:10.832Z,4.059753
2018-11-26T04:46:38.709Z,3.999329
2018-11-26T04:50:07.573Z,3.938904
2018-11-26T04:53:35.460Z,3.898621
2018-11-26T04:57:03.330Z,3.848267
2018-11-26T05:00:32.206Z,3.818054
2018-11-26T05:04:00.088Z,3.757629
2018-11-26T05:07:27.948Z,3.717346
2018-11-26T05:10:55.841Z,3.656921
2018-11-26T05:14:23.724Z,3.616638
2018-11-26T05:17:52.583Z,3.546143
2018-11-26T05:21:20.461Z,3.51593
2018-11-26T05:24:48.343Z,3.485718
2018-11-26T05:28:16.204Z,3.475647
2018-11-26T05:31:44.091Z,3.455505
2018-11-26T05:35:11.970Z,3.455505
2018-11-26T05:38:39.847Z,3.475647
2018-11-26T05:42:07.741Z,3.485718
2018-11-26T05:45:36.610Z,3.485718
2018-11-26T05:49:04.475Z,3.505859
2018-11-26T05:52:32.362Z,3.51593
2018-11-26T05:56:00.248Z,3.556213
2018-11-26T05:59:28.117Z,3.596497
2018-11-26T06:02:56.011Z,3.626709
2018-11-26T06:06:24.891Z,3.656921
2018-11-26T06:09:52.783Z,3.687134
2018-11-26T06:13:21.648Z,3.697205
2018-11-26T06:16:53.538Z,3.727417
2018-11-26T06:20:19.748Z,3.797913
2018-11-26T06:23:47.282Z,3.818054
2018-11-26T06:27:15.180Z,3.848267
2018-11-26T06:30:43.068Z,3.878479
2018-11-26T06:34:10.928Z,3.898621
2018-11-26T06:37:38.819Z,3.918762
2018-11-26T06:41:06.714Z,3.979187
2018-11-26T06:44:35.590Z,3.999329
2018-11-26T06:48:03.459Z,4.049683
2018-11-26T06:51:31.344Z,4.079895
2018-11-26T06:54:59.235Z,4.100037
2018-11-26T06:58:27.101Z,4.160461
2018-11-26T07:01:54.993Z,4.170532
2018-11-26T07:05:22.895Z,4.200745
2018-11-26T07:08:50.768Z,4.230957
2018-11-26T07:12:18.679Z,4.27124
2018-11-26T07:15:46.556Z,4.301453
2018-11-26T07:19:14.428Z,4.341736
2018-11-26T07:22:42.317Z,4.382019
2018-11-26T07:26:10.224Z,4.422302
2018-11-26T07:29:38.102Z,4.462585
2018-11-26T07:33:05.969Z,4.533081
2018-11-26T07:36:33.858Z,4.603577
2018-11-26T07:40:01.799Z,4.64386
2018-11-26T07:43:29.665Z,4.724426
2018-11-26T07:46:57.554Z,4.815063
2018-11-26T07:50:25.452Z,4.875488
2018-11-26T07:53:54.308Z,4.956055
2018-11-26T07:57:22.188Z,5.006409
2018-11-26T08:00:50.088Z,5.066833
2018-11-26T08:04:17.949Z,5.1474
2018-11-26T08:07:45.837Z,5.207825
2018-11-26T08:11:13.720Z,5.288391
2018-11-26T08:14:41.595Z,5.358887
2018-11-26T08:18:09.472Z,5.439453
2018-11-26T08:21:37.357Z,5.540161
2018-11-26T08:25:05.255Z,5.620728
2018-11-26T08:28:33.143Z,5.751648
2018-11-26T08:32:02.027Z,5.822144
2018-11-26T08:35:29.906Z,5.942993
2018-11-26T08:38:57.782Z,6.03363
2018-11-26T08:42:25.679Z,6.114197
2018-11-26T08:45:54.564Z,6.184692
2018-11-26T08:49:22.426Z,6.265259
2018-11-26T08:52:50.319Z,6.345825
2018-11-26T08:56:18.216Z,6.426392
2018-11-26T08:59:46.084Z,6.486816
2018-11-26T09:03:13.971Z,6.597595
2018-11-26T09:06:41.941Z,6.698303
2018-11-26T09:10:09.740Z,6.77887
2018-11-26T09:13:37.616Z,6.879578
2018-11-26T09:17:05.495Z,6.960144
2018-11-26T09:20:33.386Z,7.060852
2018-11-26T09:24:01.249Z,7.16156
2018-11-26T09:27:30.128Z,7.262268
2018-11-26T09:30:58.015Z,7.443542
2018-11-26T09:34:25.875Z,7.604675
2018-11-26T09:37:53.760Z,7.685242
2018-11-26T09:41:21.663Z,7.735596
2018-11-26T09:44:49.511Z,7.765808
2018-11-26T09:48:17.399Z,7.806091
2018-11-26T09:51:45.285Z,7.836304
2018-11-26T09:55:13.170Z,7.866516
2018-11-26T09:58:41.044Z,7.91687
2018-11-26T10:02:08.934Z,7.977295
2018-11-26T10:05:36.810Z,7.947083
2018-11-26T10:09:04.676Z,7.947083
2018-11-26T10:12:32.563Z,8.03772
2018-11-26T10:16:00.451Z,7.987366
2018-11-26T10:19:28.592Z,7.957153
2018-11-26T10:22:56.217Z,7.91687
2018-11-26T10:26:24.116Z,7.937012
2018-11-26T10:29:51.981Z,8.007507
2018-11-26T10:33:19.880Z,7.937012
2018-11-26T10:36:47.768Z,7.866516
2018-11-26T10:40:15.653Z,7.856445
2018-11-26T10:43:43.516Z,7.836304
2018-11-26T10:47:11.420Z,7.856445
2018-11-26T10:50:39.302Z,7.856445
2018-11-26T10:54:07.170Z,7.866516
2018-11-26T10:57:35.059Z,7.876587
2018-11-26T11:01:02.936Z,7.876587
2018-11-26T11:04:30.800Z,7.856445
2018-11-26T11:07:59.682Z,7.806091
2018-11-26T11:11:27.563Z,7.755737
2018-11-26T11:14:55.430Z,7.655029
2018-11-26T11:18:23.313Z,7.655029
2018-11-26T11:21:51.246Z,9.0448
2018-11-26T11:25:19.133Z,9.699402
2018-11-26T11:28:46.997Z,10.011597
2018-11-26T11:32:14.883Z,10.384216
2018-11-26T11:35:42.779Z,10.857544
2018-11-26T11:39:10.646Z,11.381226
2018-11-26T11:42:38.531Z,11.089172
2018-11-26T11:46:06.414Z,10.948181
2018-11-26T11:49:34.278Z,10.867615
2018-11-26T11:53:02.166Z,10.797119
2018-11-26T11:56:30.051Z,10.635986
2018-11-26T11:59:57.937Z,10.43457
2018-11-26T12:03:25.819Z,10.263367
2018-11-26T12:06:53.700Z,10.082092
2018-11-26T12:10:22.260Z,9.941101
2018-11-26T12:13:50.128Z,9.870605
2018-11-26T12:17:18.076Z,9.719543
2018-11-26T12:20:45.955Z,9.538269
2018-11-26T12:24:13.826Z,9.397278
2018-11-26T12:27:42.660Z,9.226074
2018-11-26T12:31:10.534Z,9.075012
2018-11-26T12:34:38.404Z,8.954163
2018-11-26T12:38:08.351Z,8.883667
2018-11-26T12:41:36.239Z,9.17572
2018-11-26T12:45:04.123Z,9.17572
2018-11-26T12:48:31.987Z,9.115295
2018-11-26T12:52:00.871Z,9.075012
2018-11-26T12:55:30.270Z,9.0448
2018-11-26T12:58:58.143Z,8.994446
2018-11-26T13:02:26.029Z,8.984375
2018-11-26T13:05:53.913Z,8.964233
2018-11-26T13:09:21.780Z,8.954163
2018-11-26T13:12:49.660Z,8.893738
2018-11-26T13:16:18.523Z,8.833313
2018-11-26T13:19:46.399Z,8.752747
2018-11-26T13:23:14.396Z,8.772888
2018-11-26T13:26:42.274Z,8.833313
2018-11-26T13:30:10.887Z,8.813171
2018-11-26T13:33:38.750Z,8.833313
2018-11-26T13:37:06.624Z,8.833313
2018-11-26T13:40:35.497Z,8.803101
2018-11-26T13:44:03.409Z,8.722534
2018-11-26T13:47:31.300Z,8.631897
2018-11-26T13:50:59.180Z,8.571472
2018-11-26T13:54:27.048Z,8.521118
2018-11-26T13:57:54.939Z,8.42041
2018-11-26T14:01:22.837Z,8.370056
2018-11-26T14:04:51.802Z,8.28949
2018-11-26T14:08:19.724Z,8.198853
2018-11-26T14:11:47.613Z,8.138428
2018-11-26T14:15:15.493Z,8.047791
2018-11-26T14:18:43.640Z,7.977295
2018-11-26T14:22:11.542Z,7.906799
2018-11-26T14:25:40.430Z,7.806091
2018-11-26T14:29:08.303Z,7.735596
2018-11-26T14:32:36.226Z,7.655029
2018-11-26T14:36:04.113Z,7.584534
2018-11-26T14:39:32.003Z,7.503967
2018-11-26T14:42:59.904Z,7.433472
2018-11-26T14:46:27.795Z,7.362976
2018-11-26T14:49:57.655Z,7.29248
2018-11-26T14:53:25.549Z,7.221985
2018-11-26T14:56:53.535Z,7.151489
2018-11-26T15:00:21.408Z,7.080994
2018-11-26T15:03:49.287Z,7.010498
2018-11-26T15:07:17.193Z,6.929932
2018-11-26T15:10:45.056Z,6.879578
2018-11-26T15:14:13.080Z,6.809082
2018-11-26T15:17:41.948Z,6.728516
2018-11-26T15:21:09.832Z,6.637878
2018-11-26T15:24:37.696Z,6.567383
2018-11-26T15:28:05.602Z,6.517029
2018-11-26T15:31:33.478Z,6.446533
2018-11-26T15:35:01.338Z,6.376038
2018-11-26T15:38:29.229Z,6.315613
2018-11-26T15:41:57.113Z,6.27533
2018-11-26T15:45:24.982Z,6.214905
2018-11-26T15:48:52.864Z,6.15448
2018-11-26T15:52:20.744Z,6.124268
2018-11-26T15:55:48.630Z,6.063843
2018-11-26T15:59:16.500Z,6.03363
2018-11-26T16:02:44.390Z,5.983276
2018-11-26T16:06:12.287Z,5.953064
2018-11-26T16:09:41.147Z,5.912781
2018-11-26T16:13:09.032Z,5.882568
2018-11-26T16:16:36.910Z,5.852356
2018-11-26T16:20:04.874Z,5.842285
2018-11-26T16:23:32.787Z,5.802002
2018-11-26T16:27:00.669Z,5.761719
2018-11-26T16:30:28.545Z,5.731506
2018-11-26T16:33:56.418Z,5.661011
2018-11-26T16:37:24.305Z,5.590515
2018-11-26T16:40:52.628Z,5.570374
2018-11-26T16:44:20.055Z,5.509949
2018-11-26T16:47:47.951Z,5.469666
2018-11-26T16:51:15.829Z,5.429382
2018-11-26T16:54:43.702Z,5.39917
2018-11-26T16:58:11.580Z,5.389099
2018-11-26T17:01:40.463Z,5.358887
2018-11-26T17:05:08.326Z,5.338745
2018-11-26T17:08:36.209Z,5.328674
2018-11-26T17:12:04.091Z,5.318604
2018-11-26T17:15:31.982Z,5.298462
2018-11-26T17:18:59.852Z,5.298462
2018-11-26T17:22:27.748Z,5.288391
2018-11-26T17:25:57.760Z,5.288391
2018-11-26T17:29:25.636Z,5.26825
2018-11-26T17:32:53.557Z,5.248108
2018-11-26T17:36:21.394Z,5.248108
2018-11-26T17:39:49.264Z,5.238037
2018-11-26T17:43:17.149Z,5.248108
2018-11-26T17:46:45.038Z,5.238037
2018-11-26T17:50:13.907Z,5.238037
2018-11-26T17:53:41.819Z,5.238037
2018-11-26T17:57:09.711Z,5.217896
2018-11-26T18:00:37.601Z,5.217896
2018-11-26T18:04:05.490Z,5.217896
2018-11-26T18:07:33.423Z,5.207825
2018-11-26T18:11:01.305Z,5.187683
2018-11-26T18:14:29.173Z,5.187683
2018-11-26T18:17:57.077Z,5.177612
2018-11-26T18:21:25.026Z,5.137329
2018-11-26T18:24:52.905Z,5.137329
2018-11-26T18:28:20.790Z,5.107117
2018-11-26T18:31:48.674Z,5.086975
2018-11-26T18:35:16.543Z,5.056763
2018-11-26T18:38:45.440Z,5.036621
2018-11-26T18:42:13.346Z,4.996338
2018-11-26T18:45:42.228Z,4.956055
2018-11-26T18:49:11.803Z,4.925842
2018-11-26T18:52:39.725Z,4.885559
2018-11-26T18:56:07.615Z,4.825134
2018-11-26T18:59:36.588Z,4.794922
2018-11-26T19:03:04.475Z,4.77478
2018-11-26T19:06:32.373Z,4.724426
2018-11-26T19:10:01.271Z,4.714355
2018-11-26T19:13:30.736Z,4.664001
2018-11-26T19:16:58.676Z,4.664001
2018-11-26T19:20:26.560Z,4.633789
2018-11-26T19:23:54.427Z,4.613647
2018-11-26T19:27:22.319Z,4.613647
2018-11-26T19:30:50.210Z,4.603577
2018-11-26T19:34:18.074Z,4.603577
2018-11-26T19:37:45.963Z,4.573364
2018-11-26T19:41:13.843Z,4.563293
2018-11-26T19:44:41.721Z,4.563293
2018-11-26T19:48:09.629Z,4.543152
2018-11-26T19:51:38.442Z,4.512939
2018-11-26T19:55:08.019Z,4.482727
2018-11-26T19:58:37.921Z,4.462585
2018-11-26T20:02:05.807Z,4.432373
2018-11-26T20:05:33.686Z,4.39209
2018-11-26T20:09:01.557Z,4.351807
2018-11-26T20:12:29.539Z,4.311523
2018-11-26T20:15:58.323Z,4.281311
2018-11-26T20:19:26.486Z,4.230957
2018-11-26T20:22:54.416Z,4.170532
2018-11-26T20:26:22.509Z,4.089966
2018-11-26T20:29:50.399Z,4.029541
2018-11-26T20:33:18.307Z,3.979187
2018-11-26T20:36:46.188Z,3.918762
2018-11-26T20:40:14.071Z,3.838196
2018-11-26T20:43:42.959Z,3.797913
2018-11-26T20:47:10.848Z,3.697205
2018-11-26T20:50:38.809Z,3.656921
2018-11-26T20:54:06.700Z,3.586426
2018-11-26T20:57:34.604Z,3.536072
2018-11-26T21:01:02.507Z,3.485718
2018-11-26T21:04:30.385Z,3.445435
2018-11-26T21:07:58.280Z,3.435364
2018-11-26T21:11:26.160Z,3.405151
2018-11-26T21:14:54.042Z,3.364868
2018-11-26T21:18:22.900Z,3.364868
2018-11-26T21:21:50.779Z,3.364868
2018-11-26T21:25:18.692Z,3.354797
2018-11-26T21:28:46.559Z,3.374939
2018-11-26T21:32:14.450Z,3.405151
2018-11-26T21:35:42.347Z,3.415222
2018-11-26T21:39:10.217Z,3.445435
2018-11-26T21:42:38.114Z,3.455505
2018-11-26T21:46:05.997Z,3.475647
2018-11-26T21:49:33.866Z,3.51593
2018-11-26T21:53:01.787Z,3.556213
2018-11-26T21:56:29.687Z,3.596497
2018-11-26T21:59:57.554Z,3.626709
2018-11-26T22:03:30.370Z,3.656921
2018-11-26T22:06:56.291Z,3.697205
2018-11-26T22:10:24.221Z,3.717346
2018-11-26T22:13:52.094Z,3.757629
2018-11-26T22:17:20.973Z,3.797913
2018-11-26T22:20:48.875Z,3.818054
2018-11-26T22:24:16.743Z,3.848267
2018-11-26T22:27:45.620Z,3.878479
2018-11-26T22:31:13.502Z,3.898621
2018-11-26T22:34:41.369Z,3.918762
2018-11-26T22:38:09.253Z,3.959045
2018-11-26T22:41:37.129Z,3.979187
2018-11-26T22:45:05.005Z,3.989258
2018-11-26T22:48:33.871Z,3.999329
2018-11-26T22:52:01.760Z,4.029541
2018-11-26T22:55:29.643Z,4.029541
2018-11-26T22:58:57.507Z,4.059753
2018-11-26T23:02:25.394Z,4.059753
2018-11-26T23:05:53.276Z,4.079895
2018-11-26T23:09:21.143Z,4.079895
2018-11-26T23:12:49.026Z,4.089966
2018-11-26T23:16:16.908Z,4.089966
2018-11-26T23:19:44.774Z,4.089966
2018-11-26T23:23:12.653Z,4.100037
2018-11-26T23:26:40.538Z,4.100037
2018-11-26T23:30:08.402Z,4.100037
2018-11-26T23:33:36.286Z,4.130249
2018-11-26T23:37:04.171Z,4.160461
2018-11-26T23:40:32.042Z,4.130249
2018-11-26T23:44:00.910Z,4.160461
2018-11-26T23:47:29.783Z,4.160461
2018-11-26T23:50:57.662Z,4.170532
2018-11-26T23:54:25.531Z,4.170532
2018-11-26T23:57:53.410Z,4.180603
